KSFB/SFB METAR and TAF weather

Enter ICAO airport designator
Station Type Date Time Source
KSFB METAR 2019/02/23 22:53 UTC NOAA

KSFB 232253Z 11008KT 10SM CLR 27/21 A3006 RMK AO2 SLP178 T02720211


Station Type Date Time Source
KSFB Decoded METAR 2019/02/23 22:53 UTC NOAA

ORLANDO SANFORD AIRPORT, FL, United States (KSFB) 28-47N 081-15W
Feb 23, 2019 - 05:53 PM EST / 2019.02.23 2253 UTC
Wind: from the ESE (110 degrees) at 9 MPH (8 KT):0
Visibility: 10 mile(s):0
Sky conditions: clear
Temperature: 81.0 F (27.2 C)
Dew Point: 70.0 F (21.1 C)
Relative Humidity: 69%
Pressure (altimeter): 30.06 in. Hg (1017 hPa)
ob: KSFB 232253Z 11008KT 10SM CLR 27/21 A3006 RMK AO2 SLP178 T02720211
cycle: 23

Station Type Date Time Source
KSFB TAF 2019/02/23 18:40 UTC NOAA

TAF KSFB 231737Z 2318/2418 17010KT P6SM SCT030 SCT060
FM232200 15010KT P6SM VCSH SCT040 BKN080
FM240600 18004KT 5SM BR FEW008 SCT015
FM241400 22011KT P6SM SCT040


Example: see airport list